sensor_id;sensor_type;location;lat;lon;timestamp;P1;durP1;ratioP1;P2;durP2;ratioP2
9888;SDS011;4983;42.112;24.738;2022-07-29T00:01:58;7.90;;;4.33;;
9888;SDS011;4983;42.112;24.738;2022-07-29T00:04:25;5.40;;;4.00;;
9888;SDS011;4983;42.112;24.738;2022-07-29T00:06:52;5.73;;;4.30;;
9888;SDS011;4983;42.112;24.738;2022-07-29T00:09:18;7.97;;;4.80;;
9888;SDS011;4983;42.112;24.738;2022-07-29T00:11:47;6.60;;;4.53;;
9888;SDS011;4983;42.112;24.738;2022-07-29T00:14:14;7.23;;;4.67;;
9888;SDS011;4983;42.112;24.738;2022-07-29T00:16:41;8.07;;;4.57;;
9888;SDS011;4983;42.112;24.738;2022-07-29T00:19:08;6.47;;;4.90;;
9888;SDS011;4983;42.112;24.738;2022-07-29T00:21:35;7.00;;;4.87;;
9888;SDS011;4983;42.112;24.738;2022-07-29T00:24:02;6.83;;;4.80;;
9888;SDS011;4983;42.112;24.738;2022-07-29T00:26:29;7.23;;;4.63;;
9888;SDS011;4983;42.112;24.738;2022-07-29T00:28:58;7.53;;;4.70;;
9888;SDS011;4983;42.112;24.738;2022-07-29T00:31:26;7.67;;;4.70;;
9888;SDS011;4983;42.112;24.738;2022-07-29T00:33:53;8.57;;;4.97;;
9888;SDS011;4983;42.112;24.738;2022-07-29T00:36:20;14.53;;;5.27;;
9888;SDS011;4983;42.112;24.738;2022-07-29T00:38:46;20.40;;;5.60;;
9888;SDS011;4983;42.112;24.738;2022-07-29T00:41:13;11.30;;;5.57;;
9888;SDS011;4983;42.112;24.738;2022-07-29T00:43:40;7.00;;;5.00;;
9888;SDS011;4983;42.112;24.738;2022-07-29T00:46:08;8.67;;;5.37;;
9888;SDS011;4983;42.112;24.738;2022-07-29T00:48:36;8.03;;;5.33;;
9888;SDS011;4983;42.112;24.738;2022-07-29T00:51:04;9.03;;;5.10;;
9888;SDS011;4983;42.112;24.738;2022-07-29T00:53:32;5.93;;;5.30;;
9888;SDS011;4983;42.112;24.738;2022-07-29T00:56:02;10.57;;;5.43;;
9888;SDS011;4983;42.112;24.738;2022-07-29T00:58:29;9.27;;;4.97;;
9888;SDS011;4983;42.112;24.738;2022-07-29T01:00:56;7.20;;;5.30;;
9888;SDS011;4983;42.112;24.738;2022-07-29T01:03:25;13.47;;;5.60;;
9888;SDS011;4983;42.112;24.738;2022-07-29T01:05:52;11.67;;;5.63;;
9888;SDS011;4983;42.112;24.738;2022-07-29T01:08:20;10.73;;;5.77;;
9888;SDS011;4983;42.112;24.738;2022-07-29T01:10:49;11.10;;;5.60;;
9888;SDS011;4983;42.112;24.738;2022-07-29T01:13:17;14.80;;;5.63;;
9888;SDS011;4983;42.112;24.738;2022-07-29T01:15:46;8.07;;;5.57;;
9888;SDS011;4983;42.112;24.738;2022-07-29T01:18:18;20.07;;;5.27;;
9888;SDS011;4983;42.112;24.738;2022-07-29T01:20:55;23.03;;;5.53;;
9888;SDS011;4983;42.112;24.738;2022-07-29T01:23:46;16.00;;;6.00;;
9888;SDS011;4983;42.112;24.738;2022-07-29T01:26:28;8.07;;;5.07;;
9888;SDS011;4983;42.112;24.738;2022-07-29T01:29:03;9.57;;;4.93;;
9888;SDS011;4983;42.112;24.738;2022-07-29T01:31:35;6.97;;;4.80;;
9888;SDS011;4983;42.112;24.738;2022-07-29T01:34:08;11.20;;;5.27;;
9888;SDS011;4983;42.112;24.738;2022-07-29T01:36:40;5.87;;;5.37;;
9888;SDS011;4983;42.112;24.738;2022-07-29T01:39:12;6.13;;;5.33;;
9888;SDS011;4983;42.112;24.738;2022-07-29T01:41:56;6.20;;;5.40;;
9888;SDS011;4983;42.112;24.738;2022-07-29T01:44:32;7.17;;;5.47;;
9888;SDS011;4983;42.112;24.738;2022-07-29T01:47:04;6.60;;;5.73;;
9888;SDS011;4983;42.112;24.738;2022-07-29T01:49:37;6.63;;;5.97;;
9888;SDS011;4983;42.112;24.738;2022-07-29T01:52:11;6.37;;;5.70;;
9888;SDS011;4983;42.112;24.738;2022-07-29T01:54:43;8.87;;;5.80;;
9888;SDS011;4983;42.112;24.738;2022-07-29T01:57:15;8.10;;;5.77;;
9888;SDS011;4983;42.112;24.738;2022-07-29T01:59:47;8.00;;;5.80;;
9888;SDS011;4983;42.112;24.738;2022-07-29T02:02:17;7.97;;;6.50;;
9888;SDS011;4983;42.112;24.738;2022-07-29T02:04:45;7.63;;;6.07;;
9888;SDS011;4983;42.112;24.738;2022-07-29T02:07:15;6.60;;;5.90;;
9888;SDS011;4983;42.112;24.738;2022-07-29T02:09:45;7.03;;;6.10;;
9888;SDS011;4983;42.112;24.738;2022-07-29T02:12:17;8.17;;;7.00;;
9888;SDS011;4983;42.112;24.738;2022-07-29T02:14:49;7.67;;;6.87;;
9888;SDS011;4983;42.112;24.738;2022-07-29T02:17:20;10.57;;;6.93;;
9888;SDS011;4983;42.112;24.738;2022-07-29T02:19:51;7.17;;;6.30;;
9888;SDS011;4983;42.112;24.738;2022-07-29T02:22:22;9.50;;;7.00;;
9888;SDS011;4983;42.112;24.738;2022-07-29T02:24:51;9.53;;;7.67;;
9888;SDS011;4983;42.112;24.738;2022-07-29T02:27:20;9.17;;;8.13;;
9888;SDS011;4983;42.112;24.738;2022-07-29T02:29:51;9.50;;;8.60;;
9888;SDS011;4983;42.112;24.738;2022-07-29T02:32:19;9.93;;;9.03;;
9888;SDS011;4983;42.112;24.738;2022-07-29T02:34:47;10.17;;;9.27;;
9888;SDS011;4983;42.112;24.738;2022-07-29T02:37:17;10.10;;;9.20;;
9888;SDS011;4983;42.112;24.738;2022-07-29T02:39:44;9.60;;;8.60;;
9888;SDS011;4983;42.112;24.738;2022-07-29T02:42:15;10.03;;;9.00;;
9888;SDS011;4983;42.112;24.738;2022-07-29T02:44:43;10.00;;;9.03;;
9888;SDS011;4983;42.112;24.738;2022-07-29T02:47:13;11.33;;;9.40;;
9888;SDS011;4983;42.112;24.738;2022-07-29T02:49:47;9.33;;;8.43;;
9888;SDS011;4983;42.112;24.738;2022-07-29T02:52:19;10.27;;;9.20;;
9888;SDS011;4983;42.112;24.738;2022-07-29T02:54:51;10.60;;;9.10;;
9888;SDS011;4983;42.112;24.738;2022-07-29T02:57:22;13.10;;;9.60;;
9888;SDS011;4983;42.112;24.738;2022-07-29T02:59:57;10.47;;;9.50;;
9888;SDS011;4983;42.112;24.738;2022-07-29T03:02:30;11.33;;;9.37;;
9888;SDS011;4983;42.112;24.738;2022-07-29T03:05:00;10.50;;;9.40;;
9888;SDS011;4983;42.112;24.738;2022-07-29T03:07:28;10.80;;;9.70;;
9888;SDS011;4983;42.112;24.738;2022-07-29T03:09:56;12.37;;;9.97;;
9888;SDS011;4983;42.112;24.738;2022-07-29T03:12:24;10.97;;;9.47;;
9888;SDS011;4983;42.112;24.738;2022-07-29T03:14:52;10.67;;;9.23;;
9888;SDS011;4983;42.112;24.738;2022-07-29T03:17:20;11.70;;;9.30;;
9888;SDS011;4983;42.112;24.738;2022-07-29T03:19:49;9.83;;;8.50;;
9888;SDS011;4983;42.112;24.738;2022-07-29T03:22:16;10.57;;;8.80;;
9888;SDS011;4983;42.112;24.738;2022-07-29T03:24:43;9.10;;;8.20;;
9888;SDS011;4983;42.112;24.738;2022-07-29T03:27:10;13.50;;;9.30;;
9888;SDS011;4983;42.112;24.738;2022-07-29T03:29:37;10.23;;;9.00;;
9888;SDS011;4983;42.112;24.738;2022-07-29T03:32:04;9.00;;;8.10;;
9888;SDS011;4983;42.112;24.738;2022-07-29T03:34:32;9.37;;;8.47;;
9888;SDS011;4983;42.112;24.738;2022-07-29T03:37:00;9.40;;;8.50;;
9888;SDS011;4983;42.112;24.738;2022-07-29T03:39:28;11.47;;;8.47;;
9888;SDS011;4983;42.112;24.738;2022-07-29T03:41:59;11.13;;;7.90;;
9888;SDS011;4983;42.112;24.738;2022-07-29T03:44:27;10.80;;;8.03;;
9888;SDS011;4983;42.112;24.738;2022-07-29T03:46:55;16.13;;;8.53;;
9888;SDS011;4983;42.112;24.738;2022-07-29T03:49:27;31.33;;;10.00;;
9888;SDS011;4983;42.112;24.738;2022-07-29T03:51:54;13.33;;;8.77;;
9888;SDS011;4983;42.112;24.738;2022-07-29T03:54:23;13.00;;;8.17;;
9888;SDS011;4983;42.112;24.738;2022-07-29T03:56:50;15.07;;;8.07;;
9888;SDS011;4983;42.112;24.738;2022-07-29T03:59:18;12.87;;;8.30;;
9888;SDS011;4983;42.112;24.738;2022-07-29T04:01:47;24.50;;;11.43;;
9888;SDS011;4983;42.112;24.738;2022-07-29T04:04:15;19.73;;;10.30;;
9888;SDS011;4983;42.112;24.738;2022-07-29T04:06:43;30.43;;;12.50;;
9888;SDS011;4983;42.112;24.738;2022-07-29T04:09:11;22.53;;;10.87;;
9888;SDS011;4983;42.112;24.738;2022-07-29T04:11:40;21.63;;;10.47;;
9888;SDS011;4983;42.112;24.738;2022-07-29T04:14:09;13.83;;;10.80;;
9888;SDS011;4983;42.112;24.738;2022-07-29T04:16:35;14.53;;;9.97;;
9888;SDS011;4983;42.112;24.738;2022-07-29T04:19:02;13.57;;;11.10;;
9888;SDS011;4983;42.112;24.738;2022-07-29T04:21:29;15.70;;;10.83;;
9888;SDS011;4983;42.112;24.738;2022-07-29T04:23:56;22.73;;;11.30;;
9888;SDS011;4983;42.112;24.738;2022-07-29T04:26:23;14.63;;;10.73;;
9888;SDS011;4983;42.112;24.738;2022-07-29T04:28:51;17.63;;;11.30;;
9888;SDS011;4983;42.112;24.738;2022-07-29T04:31:18;17.43;;;10.93;;
9888;SDS011;4983;42.112;24.738;2022-07-29T04:33:45;15.87;;;12.70;;
9888;SDS011;4983;42.112;24.738;2022-07-29T04:36:12;17.13;;;15.40;;
9888;SDS011;4983;42.112;24.738;2022-07-29T04:38:39;21.07;;;18.83;;
9888;SDS011;4983;42.112;24.738;2022-07-29T04:41:06;20.77;;;18.40;;
9888;SDS011;4983;42.112;24.738;2022-07-29T04:43:33;26.23;;;22.03;;
9888;SDS011;4983;42.112;24.738;2022-07-29T04:46:03;25.60;;;22.97;;
9888;SDS011;4983;42.112;24.738;2022-07-29T04:48:31;22.93;;;20.83;;
9888;SDS011;4983;42.112;24.738;2022-07-29T04:50:58;39.00;;;21.50;;
9888;SDS011;4983;42.112;24.738;2022-07-29T04:53:25;35.37;;;21.60;;
9888;SDS011;4983;42.112;24.738;2022-07-29T04:55:52;21.70;;;19.23;;
9888;SDS011;4983;42.112;24.738;2022-07-29T04:58:19;19.57;;;17.67;;
9888;SDS011;4983;42.112;24.738;2022-07-29T05:00:48;26.13;;;17.70;;
9888;SDS011;4983;42.112;24.738;2022-07-29T05:03:16;18.07;;;16.03;;
9888;SDS011;4983;42.112;24.738;2022-07-29T05:05:43;20.53;;;15.90;;
9888;SDS011;4983;42.112;24.738;2022-07-29T05:08:10;16.63;;;13.83;;
9888;SDS011;4983;42.112;24.738;2022-07-29T05:10:37;16.37;;;12.87;;
9888;SDS011;4983;42.112;24.738;2022-07-29T05:13:04;13.57;;;12.40;;
9888;SDS011;4983;42.112;24.738;2022-07-29T05:15:32;14.80;;;12.70;;
9888;SDS011;4983;42.112;24.738;2022-07-29T05:17:59;15.43;;;12.30;;
9888;SDS011;4983;42.112;24.738;2022-07-29T05:20:29;14.20;;;11.60;;
9888;SDS011;4983;42.112;24.738;2022-07-29T05:22:56;13.07;;;10.27;;
9888;SDS011;4983;42.112;24.738;2022-07-29T05:25:24;19.80;;;10.90;;
9888;SDS011;4983;42.112;24.738;2022-07-29T05:27:51;11.50;;;10.00;;
9888;SDS011;4983;42.112;24.738;2022-07-29T05:30:18;15.80;;;9.80;;
9888;SDS011;4983;42.112;24.738;2022-07-29T05:32:45;10.37;;;9.30;;
9888;SDS011;4983;42.112;24.738;2022-07-29T05:35:12;11.23;;;10.13;;
9888;SDS011;4983;42.112;24.738;2022-07-29T05:37:41;13.73;;;11.03;;
9888;SDS011;4983;42.112;24.738;2022-07-29T05:40:08;15.43;;;10.90;;
9888;SDS011;4983;42.112;24.738;2022-07-29T05:42:36;12.93;;;10.43;;
9888;SDS011;4983;42.112;24.738;2022-07-29T05:45:03;20.23;;;10.20;;
9888;SDS011;4983;42.112;24.738;2022-07-29T05:47:31;12.20;;;10.13;;
9888;SDS011;4983;42.112;24.738;2022-07-29T05:49:58;17.03;;;9.37;;
9888;SDS011;4983;42.112;24.738;2022-07-29T05:52:24;11.73;;;8.93;;
9888;SDS011;4983;42.112;24.738;2022-07-29T05:54:53;10.93;;;8.30;;
9888;SDS011;4983;42.112;24.738;2022-07-29T05:57:20;13.57;;;9.07;;
9888;SDS011;4983;42.112;24.738;2022-07-29T05:59:48;19.10;;;9.00;;
9888;SDS011;4983;42.112;24.738;2022-07-29T06:02:16;17.23;;;9.23;;
9888;SDS011;4983;42.112;24.738;2022-07-29T06:04:43;28.97;;;10.57;;
9888;SDS011;4983;42.112;24.738;2022-07-29T06:07:10;15.10;;;8.47;;
9888;SDS011;4983;42.112;24.738;2022-07-29T06:09:37;10.07;;;8.47;;
9888;SDS011;4983;42.112;24.738;2022-07-29T06:12:06;28.40;;;10.10;;
9888;SDS011;4983;42.112;24.738;2022-07-29T06:14:34;17.77;;;9.30;;
9888;SDS011;4983;42.112;24.738;2022-07-29T06:17:00;21.83;;;9.67;;
9888;SDS011;4983;42.112;24.738;2022-07-29T06:19:28;10.53;;;8.47;;
9888;SDS011;4983;42.112;24.738;2022-07-29T06:21:55;10.80;;;8.13;;
9888;SDS011;4983;42.112;24.738;2022-07-29T06:24:22;11.40;;;8.40;;
9888;SDS011;4983;42.112;24.738;2022-07-29T06:26:49;9.17;;;8.37;;
9888;SDS011;4983;42.112;24.738;2022-07-29T06:29:19;12.83;;;8.57;;
9888;SDS011;4983;42.112;24.738;2022-07-29T06:31:45;10.63;;;8.20;;
9888;SDS011;4983;42.112;24.738;2022-07-29T06:34:12;19.23;;;9.03;;
9888;SDS011;4983;42.112;24.738;2022-07-29T06:36:40;18.40;;;8.33;;
9888;SDS011;4983;42.112;24.738;2022-07-29T06:39:07;39.67;;;11.33;;
9888;SDS011;4983;42.112;24.738;2022-07-29T06:41:35;12.40;;;8.80;;
9888;SDS011;4983;42.112;24.738;2022-07-29T06:44:01;13.30;;;8.40;;
9888;SDS011;4983;42.112;24.738;2022-07-29T06:46:31;15.13;;;9.00;;
9888;SDS011;4983;42.112;24.738;2022-07-29T06:48:58;9.63;;;8.07;;
9888;SDS011;4983;42.112;24.738;2022-07-29T06:51:26;11.90;;;8.37;;
9888;SDS011;4983;42.112;24.738;2022-07-29T06:53:55;10.37;;;7.80;;
9888;SDS011;4983;42.112;24.738;2022-07-29T06:56:22;10.90;;;8.50;;
9888;SDS011;4983;42.112;24.738;2022-07-29T06:58:50;18.10;;;8.73;;
9888;SDS011;4983;42.112;24.738;2022-07-29T07:01:17;11.40;;;8.03;;
9888;SDS011;4983;42.112;24.738;2022-07-29T07:03:46;9.57;;;7.80;;
9888;SDS011;4983;42.112;24.738;2022-07-29T07:06:13;9.33;;;7.50;;
9888;SDS011;4983;42.112;24.738;2022-07-29T07:08:39;10.60;;;8.03;;
9888;SDS011;4983;42.112;24.738;2022-07-29T07:11:06;16.90;;;8.17;;
9888;SDS011;4983;42.112;24.738;2022-07-29T07:13:33;12.10;;;7.77;;
9888;SDS011;4983;42.112;24.738;2022-07-29T07:16:00;22.27;;;9.57;;
9888;SDS011;4983;42.112;24.738;2022-07-29T07:18:27;11.40;;;8.40;;
9888;SDS011;4983;42.112;24.738;2022-07-29T07:20:56;10.47;;;7.73;;
9888;SDS011;4983;42.112;24.738;2022-07-29T07:23:23;12.10;;;7.80;;
9888;SDS011;4983;42.112;24.738;2022-07-29T07:25:50;7.07;;;6.37;;
9888;SDS011;4983;42.112;24.738;2022-07-29T07:28:17;10.13;;;7.33;;
9888;SDS011;4983;42.112;24.738;2022-07-29T07:30:44;11.77;;;7.17;;
9888;SDS011;4983;42.112;24.738;2022-07-29T07:33:11;17.30;;;8.33;;
9888;SDS011;4983;42.112;24.738;2022-07-29T07:35:38;11.57;;;7.00;;
9888;SDS011;4983;42.112;24.738;2022-07-29T07:38:06;7.67;;;6.70;;
9888;SDS011;4983;42.112;24.738;2022-07-29T07:40:33;9.00;;;6.83;;
9888;SDS011;4983;42.112;24.738;2022-07-29T07:43:00;26.77;;;7.80;;
9888;SDS011;4983;42.112;24.738;2022-07-29T07:45:28;11.27;;;6.30;;
9888;SDS011;4983;42.112;24.738;2022-07-29T07:47:55;9.23;;;6.77;;
9888;SDS011;4983;42.112;24.738;2022-07-29T07:50:22;9.37;;;6.47;;
9888;SDS011;4983;42.112;24.738;2022-07-29T07:52:49;12.13;;;7.10;;
9888;SDS011;4983;42.112;24.738;2022-07-29T07:55:19;13.23;;;5.70;;
9888;SDS011;4983;42.112;24.738;2022-07-29T07:57:46;9.73;;;5.40;;
9888;SDS011;4983;42.112;24.738;2022-07-29T08:00:14;11.30;;;5.23;;
9888;SDS011;4983;42.112;24.738;2022-07-29T08:02:42;18.53;;;5.50;;
9888;SDS011;4983;42.112;24.738;2022-07-29T08:05:11;6.10;;;5.03;;
9888;SDS011;4983;42.112;24.738;2022-07-29T08:07:42;10.57;;;5.73;;
9888;SDS011;4983;42.112;24.738;2022-07-29T08:10:11;9.40;;;5.40;;
9888;SDS011;4983;42.112;24.738;2022-07-29T08:12:40;12.07;;;5.30;;
9888;SDS011;4983;42.112;24.738;2022-07-29T08:15:07;16.27;;;5.33;;
9888;SDS011;4983;42.112;24.738;2022-07-29T08:17:34;9.93;;;4.87;;
9888;SDS011;4983;42.112;24.738;2022-07-29T08:20:02;13.33;;;5.00;;
9888;SDS011;4983;42.112;24.738;2022-07-29T08:22:29;24.10;;;5.97;;
9888;SDS011;4983;42.112;24.738;2022-07-29T08:24:56;6.47;;;4.10;;
9888;SDS011;4983;42.112;24.738;2022-07-29T08:27:23;10.87;;;4.97;;
9888;SDS011;4983;42.112;24.738;2022-07-29T08:29:53;8.87;;;5.00;;
9888;SDS011;4983;42.112;24.738;2022-07-29T08:32:21;17.23;;;5.30;;
9888;SDS011;4983;42.112;24.738;2022-07-29T08:34:47;12.10;;;4.70;;
9888;SDS011;4983;42.112;24.738;2022-07-29T08:37:14;20.50;;;5.60;;
9888;SDS011;4983;42.112;24.738;2022-07-29T08:39:41;15.43;;;4.73;;
9888;SDS011;4983;42.112;24.738;2022-07-29T08:42:08;46.50;;;8.63;;
9888;SDS011;4983;42.112;24.738;2022-07-29T08:44:35;23.67;;;5.60;;
9888;SDS011;4983;42.112;24.738;2022-07-29T08:47:04;28.60;;;6.47;;
9888;SDS011;4983;42.112;24.738;2022-07-29T08:49:32;13.07;;;4.90;;
9888;SDS011;4983;42.112;24.738;2022-07-29T08:52:00;8.80;;;4.73;;
9888;SDS011;4983;42.112;24.738;2022-07-29T08:54:28;12.10;;;4.40;;
9888;SDS011;4983;42.112;24.738;2022-07-29T08:56:56;23.20;;;5.40;;
9888;SDS011;4983;42.112;24.738;2022-07-29T08:59:24;5.73;;;4.13;;
9888;SDS011;4983;42.112;24.738;2022-07-29T09:01:53;33.07;;;6.53;;
9888;SDS011;4983;42.112;24.738;2022-07-29T09:04:22;8.50;;;3.90;;
9888;SDS011;4983;42.112;24.738;2022-07-29T09:06:51;27.07;;;5.33;;
9888;SDS011;4983;42.112;24.738;2022-07-29T09:09:22;5.23;;;3.80;;
9888;SDS011;4983;42.112;24.738;2022-07-29T09:11:49;6.30;;;3.93;;
9888;SDS011;4983;42.112;24.738;2022-07-29T09:14:18;10.43;;;3.27;;
9888;SDS011;4983;42.112;24.738;2022-07-29T09:16:46;9.97;;;3.60;;
9888;SDS011;4983;42.112;24.738;2022-07-29T09:19:26;10.13;;;4.20;;
9888;SDS011;4983;42.112;24.738;2022-07-29T09:21:55;4.57;;;3.13;;
9888;SDS011;4983;42.112;24.738;2022-07-29T09:24:27;113.07;;;12.83;;
9888;SDS011;4983;42.112;24.738;2022-07-29T09:27:07;5.80;;;2.90;;
9888;SDS011;4983;42.112;24.738;2022-07-29T09:29:36;7.60;;;2.90;;
9888;SDS011;4983;42.112;24.738;2022-07-29T09:32:05;11.37;;;3.20;;
9888;SDS011;4983;42.112;24.738;2022-07-29T09:34:36;11.80;;;3.13;;
9888;SDS011;4983;42.112;24.738;2022-07-29T09:37:03;10.73;;;3.03;;
9888;SDS011;4983;42.112;24.738;2022-07-29T09:39:32;10.60;;;3.10;;
9888;SDS011;4983;42.112;24.738;2022-07-29T09:42:02;5.23;;;2.90;;
9888;SDS011;4983;42.112;24.738;2022-07-29T09:44:40;10.70;;;3.43;;
9888;SDS011;4983;42.112;24.738;2022-07-29T09:47:09;11.77;;;3.07;;
9888;SDS011;4983;42.112;24.738;2022-07-29T09:49:49;8.47;;;3.27;;
9888;SDS011;4983;42.112;24.738;2022-07-29T09:52:19;49.90;;;5.67;;
9888;SDS011;4983;42.112;24.738;2022-07-29T09:54:47;6.80;;;2.70;;
9888;SDS011;4983;42.112;24.738;2022-07-29T09:57:25;4.10;;;2.40;;
9888;SDS011;4983;42.112;24.738;2022-07-29T09:59:57;10.43;;;2.90;;
9888;SDS011;4983;42.112;24.738;2022-07-29T10:02:28;34.53;;;4.67;;
9888;SDS011;4983;42.112;24.738;2022-07-29T10:04:58;17.73;;;3.40;;
9888;SDS011;4983;42.112;24.738;2022-07-29T10:07:26;8.43;;;2.77;;
9888;SDS011;4983;42.112;24.738;2022-07-29T10:10:08;14.97;;;3.40;;
9888;SDS011;4983;42.112;24.738;2022-07-29T10:12:48;8.00;;;2.80;;
9888;SDS011;4983;42.112;24.738;2022-07-29T10:15:16;6.67;;;2.60;;
9888;SDS011;4983;42.112;24.738;2022-07-29T10:17:43;48.83;;;5.90;;
9888;SDS011;4983;42.112;24.738;2022-07-29T10:20:12;11.23;;;3.40;;
9888;SDS011;4983;42.112;24.738;2022-07-29T10:22:40;23.97;;;3.70;;
9888;SDS011;4983;42.112;24.738;2022-07-29T10:25:09;17.90;;;4.23;;
9888;SDS011;4983;42.112;24.738;2022-07-29T10:27:36;12.90;;;3.03;;
9888;SDS011;4983;42.112;24.738;2022-07-29T10:30:04;45.90;;;5.50;;
9888;SDS011;4983;42.112;24.738;2022-07-29T10:32:38;5.70;;;2.63;;
9888;SDS011;4983;42.112;24.738;2022-07-29T10:35:18;4.97;;;2.70;;
9888;SDS011;4983;42.112;24.738;2022-07-29T10:38:04;20.47;;;3.40;;
9888;SDS011;4983;42.112;24.738;2022-07-29T10:40:59;5.47;;;3.00;;
9888;SDS011;4983;42.112;24.738;2022-07-29T10:43:55;66.27;;;9.23;;
9888;SDS011;4983;42.112;24.738;2022-07-29T10:46:34;24.10;;;10.70;;
9888;SDS011;4983;42.112;24.738;2022-07-29T10:49:17;7.37;;;4.40;;
9888;SDS011;4983;42.112;24.738;2022-07-29T10:51:53;10.10;;;4.40;;
9888;SDS011;4983;42.112;24.738;2022-07-29T10:57:20;10.10;;;3.73;;
9888;SDS011;4983;42.112;24.738;2022-07-29T10:59:51;5.43;;;2.80;;
9888;SDS011;4983;42.112;24.738;2022-07-29T11:02:43;7.43;;;3.50;;
9888;SDS011;4983;42.112;24.738;2022-07-29T11:05:14;3.43;;;3.00;;
9888;SDS011;4983;42.112;24.738;2022-07-29T11:10:50;3.87;;;2.87;;
9888;SDS011;4983;42.112;24.738;2022-07-29T11:16:12;33.93;;;5.40;;
9888;SDS011;4983;42.112;24.738;2022-07-29T11:21:44;5.27;;;3.37;;
9888;SDS011;4983;42.112;24.738;2022-07-29T11:24:13;5.83;;;3.30;;
9888;SDS011;4983;42.112;24.738;2022-07-29T11:26:42;11.60;;;3.40;;
9888;SDS011;4983;42.112;24.738;2022-07-29T11:29:16;21.27;;;4.07;;
9888;SDS011;4983;42.112;24.738;2022-07-29T11:31:48;3.73;;;2.87;;
9888;SDS011;4983;42.112;24.738;2022-07-29T11:34:20;13.67;;;3.33;;
9888;SDS011;4983;42.112;24.738;2022-07-29T11:39:45;10.07;;;3.43;;
9888;SDS011;4983;42.112;24.738;2022-07-29T11:45:18;15.60;;;3.67;;
9888;SDS011;4983;42.112;24.738;2022-07-29T11:47:50;11.77;;;3.00;;
9888;SDS011;4983;42.112;24.738;2022-07-29T11:50:29;7.70;;;2.87;;
9888;SDS011;4983;42.112;24.738;2022-07-29T11:52:57;3.93;;;2.70;;
9888;SDS011;4983;42.112;24.738;2022-07-29T11:55:25;12.13;;;3.20;;
9888;SDS011;4983;42.112;24.738;2022-07-29T11:57:57;10.87;;;3.23;;
9888;SDS011;4983;42.112;24.738;2022-07-29T12:00:27;12.13;;;3.27;;
9888;SDS011;4983;42.112;24.738;2022-07-29T12:02:56;62.60;;;7.73;;
9888;SDS011;4983;42.112;24.738;2022-07-29T12:05:34;32.47;;;6.00;;
9888;SDS011;4983;42.112;24.738;2022-07-29T12:08:04;16.57;;;3.97;;
9888;SDS011;4983;42.112;24.738;2022-07-29T12:10:39;4.40;;;2.60;;
9888;SDS011;4983;42.112;24.738;2022-07-29T12:13:09;7.40;;;2.70;;
9888;SDS011;4983;42.112;24.738;2022-07-29T12:15:37;5.33;;;2.90;;
9888;SDS011;4983;42.112;24.738;2022-07-29T12:18:11;14.97;;;3.97;;
9888;SDS011;4983;42.112;24.738;2022-07-29T12:20:43;7.90;;;2.80;;
9888;SDS011;4983;42.112;24.738;2022-07-29T12:23:10;20.10;;;7.43;;
9888;SDS011;4983;42.112;24.738;2022-07-29T12:25:38;38.43;;;5.43;;
9888;SDS011;4983;42.112;24.738;2022-07-29T12:28:08;53.17;;;5.20;;
9888;SDS011;4983;42.112;24.738;2022-07-29T12:30:39;10.63;;;2.67;;
9888;SDS011;4983;42.112;24.738;2022-07-29T12:33:14;6.40;;;2.40;;
9888;SDS011;4983;42.112;24.738;2022-07-29T12:35:43;7.50;;;2.80;;
9888;SDS011;4983;42.112;24.738;2022-07-29T12:38:11;135.50;;;12.63;;
9888;SDS011;4983;42.112;24.738;2022-07-29T12:40:39;44.63;;;5.73;;
9888;SDS011;4983;42.112;24.738;2022-07-29T12:43:10;9.13;;;2.90;;
9888;SDS011;4983;42.112;24.738;2022-07-29T12:45:38;16.87;;;3.20;;
9888;SDS011;4983;42.112;24.738;2022-07-29T12:48:06;10.10;;;3.40;;
9888;SDS011;4983;42.112;24.738;2022-07-29T12:50:35;7.87;;;2.80;;
9888;SDS011;4983;42.112;24.738;2022-07-29T12:53:09;17.20;;;3.30;;
9888;SDS011;4983;42.112;24.738;2022-07-29T12:55:39;5.60;;;3.10;;
9888;SDS011;4983;42.112;24.738;2022-07-29T12:58:11;3.83;;;2.80;;
9888;SDS011;4983;42.112;24.738;2022-07-29T13:00:38;27.17;;;4.57;;
9888;SDS011;4983;42.112;24.738;2022-07-29T13:03:06;5.63;;;2.90;;
9888;SDS011;4983;42.112;24.738;2022-07-29T13:05:39;24.87;;;4.53;;
9888;SDS011;4983;42.112;24.738;2022-07-29T13:08:10;6.97;;;3.13;;
9888;SDS011;4983;42.112;24.738;2022-07-29T13:10:38;3.90;;;3.00;;
9888;SDS011;4983;42.112;24.738;2022-07-29T13:13:06;11.73;;;3.30;;
9888;SDS011;4983;42.112;24.738;2022-07-29T13:15:36;19.40;;;4.00;;
9888;SDS011;4983;42.112;24.738;2022-07-29T13:18:26;17.87;;;3.77;;
9888;SDS011;4983;42.112;24.738;2022-07-29T13:20:54;7.60;;;2.83;;
9888;SDS011;4983;42.112;24.738;2022-07-29T13:23:21;6.70;;;3.03;;
9888;SDS011;4983;42.112;24.738;2022-07-29T13:25:48;188.53;;;13.90;;
9888;SDS011;4983;42.112;24.738;2022-07-29T13:28:15;8.73;;;3.47;;
9888;SDS011;4983;42.112;24.738;2022-07-29T13:30:43;16.13;;;3.60;;
9888;SDS011;4983;42.112;24.738;2022-07-29T13:33:11;11.00;;;3.90;;
9888;SDS011;4983;42.112;24.738;2022-07-29T13:35:37;7.93;;;3.07;;
9888;SDS011;4983;42.112;24.738;2022-07-29T13:38:04;13.03;;;3.60;;
9888;SDS011;4983;42.112;24.738;2022-07-29T13:40:31;32.50;;;5.37;;
9888;SDS011;4983;42.112;24.738;2022-07-29T13:43:01;8.90;;;3.13;;
9888;SDS011;4983;42.112;24.738;2022-07-29T13:45:27;24.47;;;4.07;;
9888;SDS011;4983;42.112;24.738;2022-07-29T13:47:56;10.43;;;3.30;;
9888;SDS011;4983;42.112;24.738;2022-07-29T13:50:23;6.67;;;3.20;;
9888;SDS011;4983;42.112;24.738;2022-07-29T13:52:50;36.77;;;5.30;;
9888;SDS011;4983;42.112;24.738;2022-07-29T13:55:17;7.60;;;2.97;;
9888;SDS011;4983;42.112;24.738;2022-07-29T13:57:44;5.43;;;2.80;;
9888;SDS011;4983;42.112;24.738;2022-07-29T14:00:12;7.70;;;3.20;;
9888;SDS011;4983;42.112;24.738;2022-07-29T14:02:40;10.67;;;3.40;;
9888;SDS011;4983;42.112;24.738;2022-07-29T14:05:08;4.90;;;2.80;;
9888;SDS011;4983;42.112;24.738;2022-07-29T14:07:35;14.73;;;3.93;;
9888;SDS011;4983;42.112;24.738;2022-07-29T14:10:04;13.13;;;3.70;;
9888;SDS011;4983;42.112;24.738;2022-07-29T14:12:31;60.47;;;7.73;;
9888;SDS011;4983;42.112;24.738;2022-07-29T14:14:58;8.23;;;3.00;;
9888;SDS011;4983;42.112;24.738;2022-07-29T14:17:25;7.27;;;2.83;;
9888;SDS011;4983;42.112;24.738;2022-07-29T14:19:53;15.37;;;3.47;;
9888;SDS011;4983;42.112;24.738;2022-07-29T14:22:21;5.33;;;3.00;;
9888;SDS011;4983;42.112;24.738;2022-07-29T14:24:48;5.17;;;2.50;;
9888;SDS011;4983;42.112;24.738;2022-07-29T14:27:15;9.13;;;2.83;;
9888;SDS011;4983;42.112;24.738;2022-07-29T14:29:41;8.63;;;3.13;;
9888;SDS011;4983;42.112;24.738;2022-07-29T14:32:09;10.37;;;2.67;;
9888;SDS011;4983;42.112;24.738;2022-07-29T14:34:36;6.43;;;2.77;;
9888;SDS011;4983;42.112;24.738;2022-07-29T14:37:05;8.00;;;2.40;;
9888;SDS011;4983;42.112;24.738;2022-07-29T14:39:35;21.17;;;3.80;;
9888;SDS011;4983;42.112;24.738;2022-07-29T14:42:02;9.37;;;3.17;;
9888;SDS011;4983;42.112;24.738;2022-07-29T14:44:29;14.77;;;3.17;;
9888;SDS011;4983;42.112;24.738;2022-07-29T14:46:57;6.37;;;2.50;;
9888;SDS011;4983;42.112;24.738;2022-07-29T14:49:25;17.80;;;3.60;;
9888;SDS011;4983;42.112;24.738;2022-07-29T14:51:52;4.30;;;2.57;;
9888;SDS011;4983;42.112;24.738;2022-07-29T14:54:19;12.93;;;3.57;;
9888;SDS011;4983;42.112;24.738;2022-07-29T14:56:47;3.53;;;2.50;;
9888;SDS011;4983;42.112;24.738;2022-07-29T14:59:16;4.40;;;2.23;;
9888;SDS011;4983;42.112;24.738;2022-07-29T15:01:44;5.20;;;2.60;;
9888;SDS011;4983;42.112;24.738;2022-07-29T15:04:11;12.70;;;2.97;;
9888;SDS011;4983;42.112;24.738;2022-07-29T15:06:38;6.20;;;2.40;;
9888;SDS011;4983;42.112;24.738;2022-07-29T15:09:04;6.67;;;2.80;;
9888;SDS011;4983;42.112;24.738;2022-07-29T15:11:31;7.03;;;2.40;;
9888;SDS011;4983;42.112;24.738;2022-07-29T15:14:00;4.27;;;2.40;;
9888;SDS011;4983;42.112;24.738;2022-07-29T15:16:27;19.87;;;4.23;;
9888;SDS011;4983;42.112;24.738;2022-07-29T15:18:53;6.83;;;2.70;;
9888;SDS011;4983;42.112;24.738;2022-07-29T15:21:22;7.87;;;2.70;;